UAE77Q OMDB-OOMS
Flight info
| Callsign | UAE77Q |
|---|---|
| Flight time | 0h 48m |
| Altitude | 25000 |
| Route | ANVIX L223 TARDI N629 MUSUK T511 MCT |
| Aircraft | A339/H-SADE1E2E3GHIJ3J5M1P2RWXY/LB2D1 |
Departure
| Time | 2026-04-26 13:45 |
|---|---|
| Airport | Dubai International Airport (OMDB) |
Arrival
| Time | 2026-04-26 14:34 |
|---|---|
| Airport | Muscat International Airport (OOMS) |
| Time | Latitude | Longitude | Altitude | Speed | Heading |
|---|---|---|---|---|---|
| 2026-04-26 13:07 | 25.25274 | 55.35572 | 35 ft | 0 kts | 211° |
| 2026-04-26 13:26 | 25.25281 | 55.35577 | 35 ft | 2 kts | 211° |
| 2026-04-26 13:27 | 25.25294 | 55.35585 | 35 ft | 2 kts | 211° |
| 2026-04-26 13:27 | 25.25307 | 55.35594 | 35 ft | 2 kts | 211° |
| 2026-04-26 13:27 | 25.25320 | 55.35603 | 35 ft | 2 kts | 211° |
| 2026-04-26 13:27 | 25.25332 | 55.35612 | 35 ft | 2 kts | 230° |
| 2026-04-26 13:28 | 25.25340 | 55.35626 | 35 ft | 2 kts | 249° |
| 2026-04-26 13:28 | 25.25343 | 55.35642 | 35 ft | 2 kts | 266° |
| 2026-04-26 13:28 | 25.25343 | 55.35659 | 36 ft | 2 kts | 284° |
| 2026-04-26 13:28 | 25.25338 | 55.35672 | 36 ft | 0 kts | 300° |
| 2026-04-26 13:29 | 25.25336 | 55.35675 | 36 ft | 0 kts | 302° |
| 2026-04-26 13:32 | 25.25338 | 55.35672 | 36 ft | 1 kts | 302° |
| 2026-04-26 13:32 | 25.25351 | 55.35650 | 36 ft | 5 kts | 302° |
| 2026-04-26 13:32 | 25.25374 | 55.35608 | 35 ft | 7 kts | 301° |
| 2026-04-26 13:33 | 25.25402 | 55.35554 | 35 ft | 8 kts | 299° |
| 2026-04-26 13:33 | 25.25437 | 55.35490 | 35 ft | 10 kts | 302° |
| 2026-04-26 13:33 | 25.25481 | 55.35411 | 35 ft | 13 kts | 302° |
| 2026-04-26 13:33 | 25.25534 | 55.35316 | 36 ft | 14 kts | 301° |
| 2026-04-26 13:34 | 25.25591 | 55.35215 | 37 ft | 16 kts | 301° |
| 2026-04-26 13:34 | 25.25644 | 55.35152 | 38 ft | 7 kts | 358° |
| 2026-04-26 13:34 | 25.25698 | 55.35175 | 38 ft | 8 kts | 45° |
| 2026-04-26 13:34 | 25.25727 | 55.35197 | 39 ft | 8 kts | 26° |
| 2026-04-26 13:35 | 25.25832 | 55.35261 | 38 ft | 18 kts | 31° |
| 2026-04-26 13:35 | 25.25953 | 55.35349 | 39 ft | 23 kts | 46° |
| 2026-04-26 13:35 | 25.25990 | 55.35519 | 41 ft | 23 kts | 108° |
| 2026-04-26 13:35 | 25.25905 | 55.35681 | 42 ft | 25 kts | 121° |
| 2026-04-26 13:36 | 25.25812 | 55.35844 | 45 ft | 24 kts | 121° |
| 2026-04-26 13:36 | 25.25721 | 55.36010 | 45 ft | 25 kts | 121° |
| 2026-04-26 13:36 | 25.25630 | 55.36175 | 48 ft | 24 kts | 121° |
| 2026-04-26 13:36 | 25.25539 | 55.36340 | 48 ft | 25 kts | 121° |
| 2026-04-26 13:37 | 25.25446 | 55.36510 | 49 ft | 25 kts | 120° |
| 2026-04-26 13:37 | 25.25352 | 55.36679 | 51 ft | 25 kts | 121° |
| 2026-04-26 13:37 | 25.25259 | 55.36845 | 52 ft | 25 kts | 121° |
| 2026-04-26 13:37 | 25.25164 | 55.37014 | 54 ft | 25 kts | 121° |
| 2026-04-26 13:38 | 25.25069 | 55.37184 | 54 ft | 26 kts | 121° |
| 2026-04-26 13:38 | 25.24976 | 55.37356 | 55 ft | 26 kts | 120° |
| 2026-04-26 13:38 | 25.24882 | 55.37529 | 57 ft | 26 kts | 121° |
| 2026-04-26 13:38 | 25.24786 | 55.37702 | 57 ft | 26 kts | 121° |
| 2026-04-26 13:39 | 25.24706 | 55.37845 | 58 ft | 15 kts | 121° |
| 2026-04-26 13:39 | 25.24670 | 55.37915 | 59 ft | 8 kts | 104° |
| 2026-04-26 13:39 | 25.24687 | 55.37957 | 60 ft | 5 kts | 51° |
| 2026-04-26 13:39 | 25.24694 | 55.37964 | 60 ft | 0 kts | 32° |
| 2026-04-26 13:41 | 25.24697 | 55.37966 | 60 ft | 1 kts | 32° |
| 2026-04-26 13:41 | 25.24717 | 55.37980 | 60 ft | 4 kts | 33° |
| 2026-04-26 13:41 | 25.24756 | 55.38008 | 60 ft | 8 kts | 30° |
| 2026-04-26 13:42 | 25.24815 | 55.38002 | 60 ft | 10 kts | 316° |
| 2026-04-26 13:42 | 25.24845 | 55.37957 | 60 ft | 0 kts | 302° |
| 2026-04-26 13:42 | 25.24852 | 55.37946 | 59 ft | 0 kts | 302° |
| 2026-04-26 13:44 | 25.24904 | 55.37854 | 58 ft | 44 kts | 302° |
| 2026-04-26 13:45 | 25.25189 | 55.37344 | 54 ft | 108 kts | 301° |
| 2026-04-26 13:45 | 25.25676 | 55.36461 | 57 ft | 159 kts | 301° |
| 2026-04-26 13:45 | 25.26277 | 55.35366 | 477 ft | 169 kts | 301° |
| 2026-04-26 13:45 | 25.26874 | 55.34286 | 1174 ft | 164 kts | 302° |
| 2026-04-26 13:46 | 25.27453 | 55.33236 | 1860 ft | 159 kts | 301° |
| 2026-04-26 13:46 | 25.28026 | 55.32173 | 2192 ft | 167 kts | 301° |
| 2026-04-26 13:46 | 25.28633 | 55.31023 | 2483 ft | 179 kts | 301° |
| 2026-04-26 13:46 | 25.29177 | 55.29735 | 2731 ft | 195 kts | 281° |
| 2026-04-26 13:47 | 25.29027 | 55.28188 | 2980 ft | 216 kts | 251° |
| 2026-04-26 13:47 | 25.28379 | 55.26626 | 3353 ft | 229 kts | 248° |
| 2026-04-26 13:47 | 25.27692 | 55.25042 | 3789 ft | 231 kts | 248° |
| 2026-04-26 13:47 | 25.27002 | 55.23448 | 3978 ft | 231 kts | 248° |
| 2026-04-26 13:48 | 25.26311 | 55.21843 | 3976 ft | 230 kts | 248° |
| 2026-04-26 13:48 | 25.25630 | 55.20246 | 3982 ft | 230 kts | 248° |
| 2026-04-26 13:48 | 25.24948 | 55.18657 | 3985 ft | 231 kts | 245° |
| 2026-04-26 13:48 | 25.23896 | 55.17298 | 3975 ft | 241 kts | 216° |
| 2026-04-26 13:49 | 25.22258 | 55.16684 | 4145 ft | 262 kts | 185° |
| 2026-04-26 13:49 | 25.20415 | 55.16798 | 4805 ft | 268 kts | 176° |
| 2026-04-26 13:49 | 25.18651 | 55.17465 | 5511 ft | 275 kts | 146° |
| 2026-04-26 13:49 | 25.17364 | 55.19069 | 6028 ft | 287 kts | 119° |
| 2026-04-26 13:50 | 25.16434 | 55.21066 | 6452 ft | 301 kts | 116° |
| 2026-04-26 13:50 | 25.15510 | 55.23165 | 6851 ft | 304 kts | 116° |
| 2026-04-26 13:50 | 25.14569 | 55.25238 | 7036 ft | 304 kts | 117° |
| 2026-04-26 13:50 | 25.13590 | 55.27323 | 7409 ft | 311 kts | 118° |
| 2026-04-26 13:51 | 25.12589 | 55.29418 | 8186 ft | 309 kts | 118° |
| 2026-04-26 13:51 | 25.11592 | 55.31493 | 8954 ft | 309 kts | 118° |
| 2026-04-26 13:51 | 25.10604 | 55.33606 | 9669 ft | 310 kts | 116° |
| 2026-04-26 13:51 | 25.09703 | 55.35753 | 10334 ft | 313 kts | 115° |
| 2026-04-26 13:52 | 25.08796 | 55.37961 | 11007 ft | 316 kts | 115° |
| 2026-04-26 13:52 | 25.07896 | 55.40154 | 11667 ft | 319 kts | 115° |
| 2026-04-26 13:52 | 25.06979 | 55.42403 | 12315 ft | 323 kts | 114° |
| 2026-04-26 13:52 | 25.06072 | 55.44739 | 12694 ft | 338 kts | 113° |
| 2026-04-26 13:53 | 25.05150 | 55.47156 | 12980 ft | 355 kts | 113° |
| 2026-04-26 13:53 | 25.04169 | 55.49724 | 13317 ft | 370 kts | 113° |
| 2026-04-26 13:53 | 25.03157 | 55.52363 | 13925 ft | 376 kts | 113° |
| 2026-04-26 13:53 | 25.02089 | 55.54973 | 14523 ft | 378 kts | 117° |
| 2026-04-26 13:54 | 25.00843 | 55.57546 | 14813 ft | 378 kts | 121° |
| 2026-04-26 13:54 | 24.99516 | 55.60022 | 14892 ft | 379 kts | 122° |
| 2026-04-26 13:54 | 24.98131 | 55.62562 | 15275 ft | 386 kts | 122° |
| 2026-04-26 13:55 | 24.95386 | 55.67616 | 16799 ft | 387 kts | 122° |
| 2026-04-26 13:55 | 24.94461 | 55.69283 | 17257 ft | 389 kts | 124° |
| 2026-04-26 13:55 | 24.90771 | 55.75021 | 18763 ft | 398 kts | 128° |
| 2026-04-26 13:56 | 24.89152 | 55.77452 | 19422 ft | 401 kts | 128° |
| 2026-04-26 13:56 | 24.87511 | 55.79920 | 20235 ft | 400 kts | 129° |
| 2026-04-26 13:56 | 24.85864 | 55.82404 | 21060 ft | 398 kts | 129° |
| 2026-04-26 13:56 | 24.84236 | 55.84858 | 21812 ft | 397 kts | 129° |
| 2026-04-26 13:57 | 24.82605 | 55.87287 | 22550 ft | 396 kts | 130° |
| 2026-04-26 13:57 | 24.80967 | 55.89698 | 23262 ft | 395 kts | 130° |
| 2026-04-26 13:57 | 24.79295 | 55.92097 | 23915 ft | 395 kts | 133° |
| 2026-04-26 13:57 | 24.77498 | 55.94380 | 24461 ft | 396 kts | 136° |
| 2026-04-26 13:58 | 24.75557 | 55.96524 | 24849 ft | 399 kts | 140° |
| 2026-04-26 13:58 | 24.73523 | 55.98618 | 24967 ft | 402 kts | 141° |
| 2026-04-26 13:58 | 24.71467 | 56.00715 | 24972 ft | 404 kts | 140° |
| 2026-04-26 13:58 | 24.69420 | 56.02810 | 24972 ft | 404 kts | 140° |
| 2026-04-26 13:59 | 24.67354 | 56.04932 | 24969 ft | 403 kts | 140° |
| 2026-04-26 13:59 | 24.65324 | 56.07022 | 24968 ft | 404 kts | 140° |
| 2026-04-26 13:59 | 24.63268 | 56.09139 | 24962 ft | 405 kts | 140° |
| 2026-04-26 14:00 | 24.57139 | 56.15532 | 24975 ft | 405 kts | 137° |
| 2026-04-26 14:00 | 24.55251 | 56.17822 | 24980 ft | 404 kts | 134° |
| 2026-04-26 14:00 | 24.54046 | 56.19353 | 24988 ft | 404 kts | 134° |
| 2026-04-26 14:01 | 24.51604 | 56.22474 | 25000 ft | 404 kts | 134° |
| 2026-04-26 14:01 | 24.49766 | 56.24824 | 25006 ft | 404 kts | 134° |
| 2026-04-26 14:01 | 24.47953 | 56.27138 | 25008 ft | 404 kts | 134° |
| 2026-04-26 14:01 | 24.46120 | 56.29474 | 25002 ft | 404 kts | 133° |
| 2026-04-26 14:02 | 24.44288 | 56.31805 | 24991 ft | 403 kts | 134° |
| 2026-04-26 14:02 | 24.42457 | 56.34135 | 24974 ft | 403 kts | 134° |
| 2026-04-26 14:02 | 24.40624 | 56.36463 | 24959 ft | 403 kts | 134° |
| 2026-04-26 14:02 | 24.38788 | 56.38796 | 24942 ft | 403 kts | 134° |
| 2026-04-26 14:03 | 24.36975 | 56.41098 | 24928 ft | 403 kts | 133° |
| 2026-04-26 14:03 | 24.35131 | 56.43439 | 24907 ft | 402 kts | 134° |
| 2026-04-26 14:03 | 24.33307 | 56.45752 | 24889 ft | 402 kts | 134° |
| 2026-04-26 14:03 | 24.31490 | 56.48053 | 24878 ft | 402 kts | 133° |
| 2026-04-26 14:04 | 24.29686 | 56.50422 | 24861 ft | 403 kts | 130° |
| 2026-04-26 14:04 | 24.28006 | 56.52892 | 24849 ft | 404 kts | 128° |
| 2026-04-26 14:04 | 24.26352 | 56.55386 | 24848 ft | 404 kts | 128° |
| 2026-04-26 14:04 | 24.24724 | 56.57850 | 24843 ft | 404 kts | 128° |
| 2026-04-26 14:05 | 24.23064 | 56.60361 | 24837 ft | 404 kts | 128° |
| 2026-04-26 14:05 | 24.21416 | 56.62848 | 24831 ft | 404 kts | 128° |
| 2026-04-26 14:05 | 24.19769 | 56.65330 | 24830 ft | 404 kts | 129° |
| 2026-04-26 14:05 | 24.18115 | 56.67822 | 24830 ft | 404 kts | 129° |
| 2026-04-26 14:06 | 24.16459 | 56.70312 | 24822 ft | 404 kts | 129° |
| 2026-04-26 14:06 | 24.14809 | 56.72791 | 24819 ft | 403 kts | 129° |
| 2026-04-26 14:06 | 24.13157 | 56.75273 | 24816 ft | 403 kts | 129° |
| 2026-04-26 14:06 | 24.11511 | 56.77745 | 24812 ft | 403 kts | 129° |
| 2026-04-26 14:07 | 24.09866 | 56.80213 | 24815 ft | 403 kts | 128° |
| 2026-04-26 14:07 | 24.08212 | 56.82694 | 24814 ft | 403 kts | 128° |
| 2026-04-26 14:07 | 24.06547 | 56.85188 | 24806 ft | 403 kts | 128° |
| 2026-04-26 14:07 | 24.04897 | 56.87660 | 24802 ft | 403 kts | 128° |
| 2026-04-26 14:08 | 24.03264 | 56.90104 | 24807 ft | 403 kts | 128° |
| 2026-04-26 14:08 | 24.01604 | 56.92585 | 24809 ft | 403 kts | 128° |
| 2026-04-26 14:08 | 23.99958 | 56.95042 | 24807 ft | 403 kts | 128° |
| 2026-04-26 14:08 | 23.98285 | 56.97543 | 24808 ft | 403 kts | 128° |
| 2026-04-26 14:09 | 23.96629 | 57.00015 | 24806 ft | 403 kts | 128° |
| 2026-04-26 14:09 | 23.94989 | 57.02464 | 24815 ft | 403 kts | 128° |
| 2026-04-26 14:09 | 23.93315 | 57.04961 | 24812 ft | 403 kts | 128° |
| 2026-04-26 14:09 | 23.91681 | 57.07396 | 24812 ft | 403 kts | 128° |
| 2026-04-26 14:10 | 23.90015 | 57.09878 | 24819 ft | 403 kts | 128° |
| 2026-04-26 14:10 | 23.88347 | 57.12363 | 24817 ft | 403 kts | 128° |
| 2026-04-26 14:10 | 23.86696 | 57.14819 | 24816 ft | 402 kts | 128° |
| 2026-04-26 14:10 | 23.85046 | 57.17274 | 24822 ft | 403 kts | 128° |
| 2026-04-26 14:11 | 23.81739 | 57.22194 | 24816 ft | 403 kts | 128° |
| 2026-04-26 14:11 | 23.80085 | 57.24652 | 24588 ft | 403 kts | 128° |
| 2026-04-26 14:11 | 23.78400 | 57.27156 | 23839 ft | 412 kts | 128° |
| 2026-04-26 14:12 | 23.76699 | 57.29680 | 23198 ft | 416 kts | 128° |
| 2026-04-26 14:12 | 23.74998 | 57.32203 | 22732 ft | 415 kts | 128° |
| 2026-04-26 14:12 | 23.73293 | 57.34758 | 22198 ft | 415 kts | 125° |
| 2026-04-26 14:12 | 23.72056 | 57.37547 | 21835 ft | 412 kts | 107° |
| 2026-04-26 14:13 | 23.71486 | 57.43636 | 21023 ft | 406 kts | 78° |
| 2026-04-26 14:13 | 23.72507 | 57.46506 | 20193 ft | 411 kts | 58° |
| 2026-04-26 14:13 | 23.74057 | 57.49119 | 19602 ft | 413 kts | 54° |
| 2026-04-26 14:14 | 23.75640 | 57.51697 | 19118 ft | 412 kts | 55° |
| 2026-04-26 14:14 | 23.77180 | 57.54330 | 18636 ft | 411 kts | 57° |
| 2026-04-26 14:14 | 23.78651 | 57.56974 | 18183 ft | 409 kts | 58° |
| 2026-04-26 14:14 | 23.80085 | 57.59636 | 17799 ft | 404 kts | 58° |
| 2026-04-26 14:15 | 23.81487 | 57.62289 | 17461 ft | 399 kts | 59° |
| 2026-04-26 14:15 | 23.82826 | 57.64843 | 17061 ft | 383 kts | 59° |
| 2026-04-26 14:15 | 23.84137 | 57.67352 | 16778 ft | 375 kts | 59° |
| 2026-04-26 14:15 | 23.85407 | 57.69784 | 16454 ft | 369 kts | 59° |
| 2026-04-26 14:16 | 23.86682 | 57.72222 | 16150 ft | 364 kts | 60° |
| 2026-04-26 14:16 | 23.87651 | 57.74750 | 15850 ft | 364 kts | 76° |
| 2026-04-26 14:16 | 23.87907 | 57.77458 | 15495 ft | 365 kts | 93° |
| 2026-04-26 14:16 | 23.87549 | 57.80197 | 15103 ft | 362 kts | 99° |
| 2026-04-26 14:17 | 23.87101 | 57.82889 | 14803 ft | 360 kts | 100° |
| 2026-04-26 14:17 | 23.86648 | 57.85575 | 14442 ft | 359 kts | 100° |
| 2026-04-26 14:17 | 23.86203 | 57.88244 | 14113 ft | 357 kts | 100° |
| 2026-04-26 14:17 | 23.85765 | 57.90911 | 13776 ft | 355 kts | 100° |
| 2026-04-26 14:18 | 23.85337 | 57.93539 | 13427 ft | 354 kts | 100° |
| 2026-04-26 14:18 | 23.84908 | 57.96191 | 13067 ft | 353 kts | 100° |
| 2026-04-26 14:18 | 23.84483 | 57.98821 | 12754 ft | 351 kts | 100° |
| 2026-04-26 14:18 | 23.84066 | 58.01413 | 12503 ft | 350 kts | 100° |
| 2026-04-26 14:19 | 23.83642 | 58.04046 | 12191 ft | 349 kts | 100° |
| 2026-04-26 14:19 | 23.83225 | 58.06633 | 11819 ft | 348 kts | 100° |
| 2026-04-26 14:19 | 23.82807 | 58.09211 | 11462 ft | 348 kts | 100° |
| 2026-04-26 14:19 | 23.82386 | 58.11811 | 11069 ft | 346 kts | 100° |
| 2026-04-26 14:20 | 23.81966 | 58.14403 | 10745 ft | 345 kts | 101° |
| 2026-04-26 14:20 | 23.81551 | 58.16966 | 10425 ft | 344 kts | 101° |
| 2026-04-26 14:20 | 23.81133 | 58.19537 | 10068 ft | 343 kts | 101° |
| 2026-04-26 14:20 | 23.80723 | 58.22061 | 9948 ft | 333 kts | 101° |
| 2026-04-26 14:21 | 23.80332 | 58.24473 | 9876 ft | 314 kts | 101° |
| 2026-04-26 14:21 | 23.79956 | 58.26779 | 9890 ft | 303 kts | 101° |
| 2026-04-26 14:21 | 23.79595 | 58.28997 | 9856 ft | 293 kts | 101° |
| 2026-04-26 14:21 | 23.79238 | 58.31184 | 9608 ft | 293 kts | 101° |
| 2026-04-26 14:22 | 23.78882 | 58.33364 | 9294 ft | 292 kts | 101° |
| 2026-04-26 14:22 | 23.78524 | 58.35551 | 9023 ft | 291 kts | 101° |
| 2026-04-26 14:22 | 23.78167 | 58.37721 | 8773 ft | 290 kts | 101° |
| 2026-04-26 14:22 | 23.77813 | 58.39870 | 8512 ft | 290 kts | 100° |
| 2026-04-26 14:23 | 23.77457 | 58.42034 | 8240 ft | 290 kts | 100° |
| 2026-04-26 14:23 | 23.77101 | 58.44203 | 8016 ft | 290 kts | 100° |
| 2026-04-26 14:23 | 23.76747 | 58.46364 | 7720 ft | 292 kts | 99° |
| 2026-04-26 14:23 | 23.76389 | 58.48544 | 7392 ft | 292 kts | 99° |
| 2026-04-26 14:24 | 23.76031 | 58.50722 | 7115 ft | 291 kts | 99° |
| 2026-04-26 14:24 | 23.75677 | 58.52875 | 6861 ft | 291 kts | 99° |
| 2026-04-26 14:24 | 23.75320 | 58.55042 | 6597 ft | 291 kts | 99° |
| 2026-04-26 14:24 | 23.74958 | 58.57234 | 6338 ft | 289 kts | 98° |
| 2026-04-26 14:25 | 23.74611 | 58.59330 | 6284 ft | 276 kts | 98° |
| 2026-04-26 14:25 | 23.74248 | 58.61343 | 6289 ft | 262 kts | 106° |
| 2026-04-26 14:25 | 23.73294 | 58.62956 | 6267 ft | 251 kts | 143° |
| 2026-04-26 14:25 | 23.71696 | 58.63686 | 6026 ft | 253 kts | 175° |
| 2026-04-26 14:26 | 23.69947 | 58.63805 | 5720 ft | 253 kts | 179° |
| 2026-04-26 14:26 | 23.68178 | 58.63892 | 5411 ft | 252 kts | 178° |
| 2026-04-26 14:26 | 23.66455 | 58.64005 | 5111 ft | 246 kts | 177° |
| 2026-04-26 14:26 | 23.64772 | 58.64136 | 4850 ft | 237 kts | 179° |
| 2026-04-26 14:27 | 23.63197 | 58.63821 | 4560 ft | 226 kts | 214° |
| 2026-04-26 14:27 | 23.62140 | 58.62662 | 4338 ft | 211 kts | 248° |
| 2026-04-26 14:27 | 23.61790 | 58.61177 | 4157 ft | 199 kts | 268° |
| 2026-04-26 14:27 | 23.61704 | 58.59674 | 4016 ft | 198 kts | 270° |
| 2026-04-26 14:28 | 23.61624 | 58.58177 | 3822 ft | 197 kts | 270° |
| 2026-04-26 14:28 | 23.61530 | 58.56710 | 3706 ft | 192 kts | 270° |
| 2026-04-26 14:28 | 23.61428 | 58.55280 | 3562 ft | 187 kts | 269° |
| 2026-04-26 14:28 | 23.61323 | 58.53888 | 3425 ft | 182 kts | 269° |
| 2026-04-26 14:29 | 23.61218 | 58.52527 | 3290 ft | 176 kts | 270° |
| 2026-04-26 14:29 | 23.61116 | 58.51211 | 3169 ft | 176 kts | 270° |
| 2026-04-26 14:29 | 23.61014 | 58.49876 | 3051 ft | 177 kts | 270° |
| 2026-04-26 14:29 | 23.60910 | 58.48542 | 2922 ft | 176 kts | 269° |
| 2026-04-26 14:30 | 23.60805 | 58.47212 | 2794 ft | 176 kts | 270° |
| 2026-04-26 14:30 | 23.60706 | 58.45877 | 2597 ft | 177 kts | 270° |
| 2026-04-26 14:30 | 23.60608 | 58.44564 | 2372 ft | 174 kts | 270° |
| 2026-04-26 14:30 | 23.60505 | 58.43245 | 2155 ft | 175 kts | 270° |
| 2026-04-26 14:31 | 23.60398 | 58.41917 | 1938 ft | 173 kts | 270° |
| 2026-04-26 14:31 | 23.60293 | 58.40642 | 1720 ft | 168 kts | 270° |
| 2026-04-26 14:31 | 23.60190 | 58.39394 | 1505 ft | 162 kts | 270° |
| 2026-04-26 14:31 | 23.60092 | 58.38192 | 1306 ft | 155 kts | 270° |
| 2026-04-26 14:32 | 23.59999 | 58.37047 | 1119 ft | 148 kts | 270° |
| 2026-04-26 14:32 | 23.59911 | 58.35941 | 953 ft | 147 kts | 269° |
| 2026-04-26 14:32 | 23.59822 | 58.34832 | 779 ft | 147 kts | 269° |
| 2026-04-26 14:32 | 23.59732 | 58.33725 | 596 ft | 146 kts | 269° |
| 2026-04-26 14:33 | 23.59643 | 58.32619 | 411 ft | 145 kts | 268° |
| 2026-04-26 14:33 | 23.59555 | 58.31522 | 203 ft | 145 kts | 268° |
| 2026-04-26 14:33 | 23.59461 | 58.30436 | 50 ft | 142 kts | 268° |
| 2026-04-26 14:33 | 23.59402 | 58.29516 | 50 ft | 98 kts | 265° |
| 2026-04-26 14:34 | 23.59348 | 58.28953 | 50 ft | 59 kts | 271° |
| 2026-04-26 14:34 | 23.59409 | 58.28600 | 50 ft | 29 kts | 298° |
| 2026-04-26 14:34 | 23.59529 | 58.28534 | 50 ft | 17 kts | 354° |
| 2026-04-26 14:34 | 23.59651 | 58.28519 | 49 ft | 17 kts | 352° |
| 2026-04-26 14:35 | 23.59775 | 58.28502 | 49 ft | 17 kts | 356° |
| 2026-04-26 14:35 | 23.59877 | 58.28488 | 49 ft | 7 kts | 323° |
| 2026-04-26 14:35 | 23.59883 | 58.28463 | 49 ft | 1 kts | 268° |
| 2026-04-26 14:35 | 23.59889 | 58.28447 | 49 ft | 2 kts | 305° |
| 2026-04-26 14:36 | 23.59907 | 58.28438 | 49 ft | 4 kts | 345° |
| 2026-04-26 14:36 | 23.59942 | 58.28433 | 49 ft | 5 kts | 356° |
| 2026-04-26 14:36 | 23.59971 | 58.28430 | 49 ft | 0 kts | 355° |
| 2026-04-26 14:36 | 23.59975 | 58.28429 | 49 ft | 0 kts | 355° |